Main page
METAR-TAF:

METAR-TAF

Airports :

Melbourne Airport

Melbourne, Australia

latitude: 37-40-24S, longitude: 144-50-36E, elevation: 132 m

Current weather observation

The report was made 36 minutes ago, at 04:00 UTC
Wind 15 kt from the West
Temperature 13°C
Humidity 51%
Pressure 1012 hPa
Visibility 10 km or more
Broken clouds at a height of 4400 ft

METAR: YMML 160400Z 26015KT 9999 BKN044 13/03 Q1012

Time: 14:36 (04:36 UTC)

Forecast

The report was made 5 hours and 31 minutes ago, at 23:05 UTC
Forecast valid from 16 at 00 UTC to 17 at 06 UTC
Wind 14 kt from the West
Visibility 10 km or more
Scattered clouds at a height of 4500 ft
From 16 at 0900 UTC
Wind 9 kt from the North
Visibility 10 km or more
no clouds below 1500 m and no cumulonimbus
From 16 at 2300 UTC
Wind 15 kt from the North/Northwest with gusts up to 25 kt
Visibility 10 km or more
no clouds below 1500 m and no cumulonimbus

TAF: YMML 152305Z 1600/1706 26014KT 9999 SCT045 FM160900 35009KT CAVOK FM162300 33015G25KT CAVOK

Weather observations and forecasts of more than 4000 airports (METAR and TAF reports).

The available stations are represented by yellow and red dots on the map.

Hover mouse over dot to see the name of the station.

Then click to see weather observations and forecasts.

To change the map : click on the green buttons with a black cross to zoom in, on the green button with a dash to zoom out, or on the green arrows for adjacent maps.


METAR-TAF: